Dickey, North Dakota
Current Conditions -  °F | °C
As of 5:56 PM on Friday 31 Oct 2014 (Local Time) from KJMS Reporting Station
Clear Clear  
Wind Chill: -3°   Ceiling: Unl
Heat Index:   Visibility: 10mi
Dew Point: -9°   Wind: 13mph
Humidity: 46%   Direction: 160°SSE
Pressure: 30.34"   Gusts: NA
Location:  46.54°N, 98.47°W
Report Text: KJMS 312256Z AUTO 16011KT 10SM CLR 02/M09 A3034 RMK AO2 SLP297 T00171089
Loading
Personal Weather Stations






























Interactive Weather Map
Tropical Storm Tracking
New forecast layout! Learn more

10-Day Weather Forecast

Advertisements
Track Severe Weather on mobile